Time;durP1;ratioP1;P1;durP2;ratioP2;P2;SDS_P1;SDS_P2;PMS_P1;PMS_P2;Temp;Humidity;BMP_temperature;BMP_pressure;BME280_temperature;BME280_humidity;BME280_pressure;Samples;Min_cycle;Max_cycle;Signal;HPM_P1;HPM_P2
2022/04/24 00:01:57;;;;;;;15.27;11.87;;;;;;;8.59;100.00;94339.56;5060945;28;20133;-78
2022/04/24 00:04:24;;;;;;;14.67;10.80;;;;;;;8.55;100.00;94338.31;5043520;28;20115;-78
2022/04/24 00:06:52;;;;;;;16.03;11.50;;;;;;;8.59;100.00;94337.75;5045273;28;20079;-78
2022/04/24 00:09:18;;;;;;;14.87;11.13;;;;;;;8.52;100.00;94329.06;5061911;28;20016;-78
2022/04/24 00:11:44;;;;;;;15.57;12.07;;;;;;;8.54;100.00;94332.25;5063000;28;20576;-78
2022/04/24 00:14:11;;;;;;;15.70;11.90;;;;;;;8.53;100.00;94328.03;5046952;28;20028;-77
2022/04/24 00:16:38;;;;;;;17.47;12.13;;;;;;;8.48;100.00;94335.66;5046694;28;20363;-77
2022/04/24 00:19:04;;;;;;;16.77;12.57;;;;;;;8.55;100.00;94317.34;5043721;28;20048;-78
2022/04/24 00:21:31;;;;;;;15.73;11.73;;;;;;;8.51;100.00;94330.03;5065444;28;20087;-77
2022/04/24 00:23:57;;;;;;;15.30;11.47;;;;;;;8.49;100.00;94324.19;5062029;28;20557;-78
2022/04/24 00:26:23;;;;;;;16.73;12.97;;;;;;;8.49;100.00;94319.75;5064368;28;20040;-78
2022/04/24 00:28:49;;;;;;;14.73;11.30;;;;;;;8.41;100.00;94313.84;5043118;28;20056;-77
2022/04/24 00:31:15;;;;;;;15.77;12.20;;;;;;;8.48;100.00;94312.06;5063653;28;20067;-78
2022/04/24 00:33:40;;;;;;;15.63;11.33;;;;;;;8.52;100.00;94315.13;5067215;28;20032;-78
2022/04/24 00:36:06;;;;;;;15.23;11.93;;;;;;;8.55;100.00;94297.22;5050490;28;20089;-79
2022/04/24 00:38:34;;;;;;;15.57;12.00;;;;;;;8.49;100.00;94305.84;5055743;28;20048;-79
2022/04/24 00:41:00;;;;;;;14.57;10.80;;;;;;;8.52;100.00;94297.59;5064694;28;20542;-78
2022/04/24 00:43:25;;;;;;;14.53;11.23;;;;;;;8.46;100.00;94285.28;5057118;28;20108;-77
2022/04/24 00:46:15;;;;;;;16.20;12.10;;;;;;;8.49;100.00;94267.38;5064858;28;20047;-77
2022/04/24 00:48:42;;;;;;;15.43;12.03;;;;;;;8.37;100.00;94268.06;5062454;28;21363;-78
2022/04/24 00:51:08;;;;;;;17.07;12.83;;;;;;;8.39;100.00;94255.63;5062570;28;20036;-78
2022/04/24 00:53:35;;;;;;;15.70;11.73;;;;;;;8.35;100.00;94254.34;5043641;28;20075;-78
2022/04/24 00:56:02;;;;;;;15.33;12.17;;;;;;;8.30;100.00;94248.91;5054553;28;20698;-77
2022/04/24 00:58:28;;;;;;;16.23;11.60;;;;;;;8.25;100.00;94250.28;5051775;28;20390;-77
2022/04/24 01:00:56;;;;;;;16.63;12.07;;;;;;;8.27;100.00;94240.41;5050307;28;20039;-77
2022/04/24 01:03:23;;;;;;;16.30;12.67;;;;;;;8.25;100.00;94239.81;5052525;28;20034;-78
2022/04/24 01:05:49;;;;;;;16.47;11.67;;;;;;;8.16;100.00;94240.97;5054597;28;20483;-77
2022/04/24 01:08:15;;;;;;;15.70;11.47;;;;;;;8.15;100.00;94239.38;5052544;28;20763;-77
2022/04/24 01:10:41;;;;;;;15.10;11.13;;;;;;;8.16;100.00;94233.13;5054646;28;20039;-77
2022/04/24 01:13:07;;;;;;;15.17;11.10;;;;;;;8.08;100.00;94227.22;5053829;28;20074;-77
2022/04/24 01:15:34;;;;;;;16.40;12.40;;;;;;;8.09;100.00;94226.25;5053638;28;20046;-77
2022/04/24 01:18:01;;;;;;;17.63;12.77;;;;;;;8.12;100.00;94226.66;5051384;28;20074;-77
2022/04/24 01:20:30;;;;;;;16.37;11.90;;;;;;;8.15;100.00;94226.28;5057869;28;20033;-80
2022/04/24 01:22:56;;;;;;;16.83;11.87;;;;;;;8.05;100.00;94223.19;5057383;28;20098;-77
2022/04/24 01:25:22;;;;;;;17.47;13.43;;;;;;;8.02;100.00;94220.97;5064922;28;20025;-79
2022/04/24 01:27:48;;;;;;;16.37;12.73;;;;;;;8.09;100.00;94221.00;5048689;28;20100;-78
2022/04/24 01:30:13;;;;;;;16.43;11.37;;;;;;;8.03;100.00;94223.38;5046949;28;20089;-78
2022/04/24 01:32:39;;;;;;;17.47;12.77;;;;;;;8.04;100.00;94226.78;5064031;28;20037;-77
2022/04/24 01:35:07;;;;;;;15.70;12.93;;;;;;;8.07;100.00;94228.22;5063697;28;20027;-78
2022/04/24 01:37:33;;;;;;;17.17;13.13;;;;;;;8.03;100.00;94236.47;5064680;28;20029;-78
2022/04/24 01:39:59;;;;;;;17.77;12.57;;;;;;;8.04;100.00;94232.03;5046955;28;20020;-78
2022/04/24 01:42:24;;;;;;;19.53;14.50;;;;;;;8.01;100.00;94235.88;5045751;28;20854;-78
2022/04/24 01:44:50;;;;;;;16.17;11.83;;;;;;;8.12;100.00;94228.47;5063594;28;20105;-78
2022/04/24 01:47:16;;;;;;;15.83;12.23;;;;;;;8.16;100.00;94217.41;5045050;28;20025;-78
2022/04/24 01:49:42;;;;;;;18.60;13.87;;;;;;;8.15;100.00;94212.34;5060493;28;20081;-77
2022/04/24 01:52:08;;;;;;;17.53;12.93;;;;;;;8.06;100.00;94218.78;5063763;28;20966;-78
2022/04/24 01:54:35;;;;;;;15.53;12.10;;;;;;;8.15;100.00;94218.41;5041711;28;20161;-78
2022/04/24 01:57:00;;;;;;;18.10;13.53;;;;;;;8.05;100.00;94217.97;5062300;28;20040;-78
2022/04/24 01:59:26;;;;;;;18.87;13.57;;;;;;;7.97;100.00;94224.13;5047738;28;20050;-78
2022/04/24 02:01:52;;;;;;;16.87;12.53;;;;;;;8.02;100.00;94220.97;5050569;28;20064;-78
2022/04/24 02:04:24;;;;;;;17.03;12.47;;;;;;;8.09;100.00;94226.25;5066136;28;20028;-78
2022/04/24 02:06:50;;;;;;;18.93;13.40;;;;;;;8.07;100.00;94225.59;5080491;28;20031;-77
2022/04/24 02:09:19;;;;;;;17.40;13.00;;;;;;;8.07;100.00;94223.78;5063310;28;20020;-77
2022/04/24 02:11:44;;;;;;;18.40;14.60;;;;;;;8.05;100.00;94233.66;5052898;28;20032;-77
2022/04/24 02:14:10;;;;;;;18.90;13.50;;;;;;;8.09;100.00;94223.63;5049448;28;20385;-78
2022/04/24 02:16:36;;;;;;;19.87;13.77;;;;;;;8.08;100.00;94230.66;5041539;28;20555;-77
2022/04/24 02:19:02;;;;;;;18.13;13.80;;;;;;;8.10;100.00;94233.88;5058137;28;20032;-77
2022/04/24 02:21:28;;;;;;;17.67;13.27;;;;;;;8.16;100.00;94233.13;5045745;28;20043;-77
2022/04/24 02:23:55;;;;;;;18.17;13.80;;;;;;;8.18;100.00;94227.69;5064859;28;20036;-77
2022/04/24 02:26:21;;;;;;;18.07;13.87;;;;;;;8.11;100.00;94234.69;5062785;28;20079;-77
2022/04/24 02:28:46;;;;;;;16.87;13.03;;;;;;;8.05;100.00;94236.28;5065651;28;20657;-77
2022/04/24 02:31:12;;;;;;;17.70;14.37;;;;;;;8.04;100.00;94240.69;5063805;28;20025;-77
2022/04/24 02:33:38;;;;;;;18.27;13.83;;;;;;;8.07;100.00;94262.25;5064512;28;20119;-76
2022/04/24 02:36:04;;;;;;;17.97;14.10;;;;;;;8.08;100.00;94290.88;5062850;28;20120;-77
2022/04/24 02:38:30;;;;;;;16.93;13.43;;;;;;;8.15;100.00;94322.31;5044406;28;20028;-77
2022/04/24 02:40:55;;;;;;;18.17;14.07;;;;;;;8.33;100.00;94319.22;5047711;28;20681;-76
2022/04/24 02:43:21;;;;;;;18.77;14.10;;;;;;;8.31;100.00;94326.44;5061643;28;20086;-77
2022/04/24 02:45:47;;;;;;;18.67;14.73;;;;;;;8.31;100.00;94326.44;5065487;28;20047;-77
2022/04/24 02:48:13;;;;;;;20.67;15.40;;;;;;;8.24;100.00;94321.16;5025139;28;20030;-77
2022/04/24 02:50:42;;;;;;;20.33;15.47;;;;;;;8.22;100.00;94318.75;5008869;28;20021;-77
2022/04/24 02:53:07;;;;;;;20.60;14.97;;;;;;;8.22;100.00;94323.19;5024131;28;20040;-77
2022/04/24 02:55:33;;;;;;;22.67;15.87;;;;;;;8.27;100.00;94321.59;5011410;28;20029;-77
2022/04/24 02:57:59;;;;;;;22.20;17.33;;;;;;;8.32;100.00;94322.84;5014611;28;20036;-77
2022/04/24 03:00:39;;;;;;;22.83;16.77;;;;;;;8.31;100.00;94322.03;5026913;28;22799;-77
2022/04/24 03:03:07;;;;;;;21.23;16.80;;;;;;;8.33;100.00;94316.59;5036392;28;20037;-77
2022/04/24 03:05:33;;;;;;;21.40;17.27;;;;;;;8.37;100.00;94315.22;5016830;28;20040;-77
2022/04/24 03:07:59;;;;;;;21.77;17.10;;;;;;;8.31;100.00;94326.44;5033354;28;20025;-77
2022/04/24 03:10:26;;;;;;;23.80;17.17;;;;;;;8.27;100.00;94324.22;5019370;28;20029;-77
2022/04/24 03:12:51;;;;;;;22.00;17.60;;;;;;;8.26;100.00;94329.66;5035675;28;20024;-77
2022/04/24 03:15:17;;;;;;;21.10;15.97;;;;;;;8.16;100.00;94331.81;5032383;28;21272;-78
2022/04/24 03:17:44;;;;;;;22.17;17.07;;;;;;;8.02;100.00;94349.22;5052195;28;20123;-77
2022/04/24 03:20:11;;;;;;;22.27;16.03;;;;;;;8.07;100.00;94373.00;5072673;28;20408;-77
2022/04/24 03:22:37;;;;;;;22.30;17.40;;;;;;;8.09;100.00;94376.25;5061726;28;20851;-77
2022/04/24 03:25:05;;;;;;;22.07;17.07;;;;;;;8.00;100.00;94365.09;5059805;28;20040;-78
2022/04/24 03:27:31;;;;;;;25.77;19.07;;;;;;;8.04;100.00;94371.56;5064366;28;20029;-78
2022/04/24 03:29:57;;;;;;;22.57;18.43;;;;;;;8.12;100.00;94368.03;5042940;28;20086;-77
2022/04/24 03:32:23;;;;;;;24.27;19.17;;;;;;;8.12;100.00;94359.38;5046813;28;20116;-77
2022/04/24 03:34:48;;;;;;;23.83;18.97;;;;;;;8.19;100.00;94358.41;5063337;28;20574;-77
2022/04/24 03:37:14;;;;;;;23.87;18.83;;;;;;;8.16;100.00;94355.38;5078280;28;20021;-77
2022/04/24 03:39:40;;;;;;;24.00;18.40;;;;;;;8.08;100.00;94358.94;5060282;28;20020;-77
2022/04/24 03:42:06;;;;;;;23.30;19.17;;;;;;;8.13;100.00;94356.56;5062242;28;20470;-77
2022/04/24 03:44:33;;;;;;;21.93;17.50;;;;;;;8.05;100.00;94354.09;5061645;28;20060;-77
2022/04/24 03:46:59;;;;;;;23.07;18.80;;;;;;;8.00;100.00;94351.22;5057706;28;20091;-77
2022/04/24 03:49:26;;;;;;;26.30;19.90;;;;;;;7.89;100.00;94349.94;5036310;28;20048;-77
2022/04/24 03:51:52;;;;;;;24.03;19.40;;;;;;;7.74;100.00;94351.78;5036612;28;20723;-77
2022/04/24 03:54:18;;;;;;;21.33;18.10;;;;;;;7.64;100.00;94346.88;5035750;28;20048;-77
2022/04/24 03:56:44;;;;;;;22.27;17.40;;;;;;;7.54;100.00;94352.44;5023173;28;20025;-76
2022/04/24 03:59:10;;;;;;;23.97;18.40;;;;;;;7.39;100.00;94343.81;5035021;28;20856;-77
2022/04/24 04:01:35;;;;;;;22.27;17.77;;;;;;;7.35;100.00;94347.81;5024225;28;20166;-78
2022/04/24 04:04:01;;;;;;;23.53;16.87;;;;;;;7.43;100.00;94345.06;5021844;28;20032;-78
2022/04/24 04:06:27;;;;;;;23.80;17.60;;;;;;;7.39;100.00;94343.81;5020921;28;23004;-77
2022/04/24 04:08:53;;;;;;;24.00;18.37;;;;;;;7.43;100.00;94345.06;5051172;28;20032;-77
2022/04/24 04:11:19;;;;;;;27.60;18.07;;;;;;;7.47;100.00;94346.31;5034788;28;20044;-77
2022/04/24 04:13:45;;;;;;;23.10;17.67;;;;;;;7.51;100.00;94350.19;5025078;28;22153;-77
2022/04/24 04:16:10;;;;;;;21.20;17.33;;;;;;;7.44;100.00;94351.91;5021698;28;20040;-77
2022/04/24 04:18:36;;;;;;;22.40;18.20;;;;;;;7.58;100.00;94352.88;5035188;28;20693;-77
2022/04/24 04:21:02;;;;;;;23.40;16.73;;;;;;;7.65;100.00;94351.13;5063601;28;20048;-77
2022/04/24 04:23:27;;;;;;;22.23;17.67;;;;;;;7.74;100.00;94363.06;5048124;28;20954;-79
2022/04/24 04:25:53;;;;;;;21.47;17.37;;;;;;;7.67;100.00;94367.44;5048365;28;20024;-77
2022/04/24 04:28:19;;;;;;;21.13;16.77;;;;;;;7.64;100.00;94373.03;5064683;28;20036;-78
2022/04/24 04:30:45;;;;;;;21.53;16.87;;;;;;;7.52;100.00;94379.78;5050061;28;20457;-78
2022/04/24 04:33:10;;;;;;;22.50;17.83;;;;;;;7.59;100.00;94375.41;5046147;28;20047;-77
2022/04/24 04:35:36;;;;;;;21.60;17.57;;;;;;;7.59;100.00;94372.00;5050350;28;20043;-77
2022/04/24 04:38:02;;;;;;;21.40;17.57;;;;;;;7.60;100.00;94381.44;5066638;28;20033;-77
2022/04/24 04:40:30;;;;;;;24.50;17.63;;;;;;;7.55;100.00;94382.03;5063673;28;20033;-78
2022/04/24 04:42:56;;;;;;;21.67;16.43;;;;;;;7.55;100.00;94384.63;5044645;28;20393;-77
2022/04/24 04:45:24;;;;;;;21.13;16.77;;;;;;;7.60;100.00;94376.22;5048023;28;20036;-77
2022/04/24 04:47:51;;;;;;;23.17;17.57;;;;;;;7.64;100.00;94382.69;5065897;28;20060;-77
2022/04/24 04:50:18;;;;;;;21.50;16.13;;;;;;;7.66;100.00;94381.53;5047775;28;20048;-77
2022/04/24 04:52:44;;;;;;;21.17;16.43;;;;;;;7.60;100.00;94392.72;5061970;28;20036;-77
2022/04/24 04:55:10;;;;;;;20.97;16.53;;;;;;;7.65;100.00;94398.22;5063157;28;20044;-77
2022/04/24 04:57:36;;;;;;;25.70;17.77;;;;;;;7.68;100.00;94389.16;5064997;28;20032;-77
2022/04/24 05:00:07;;;;;;;25.93;19.20;;;;;;;7.71;100.00;94389.63;5047270;28;20033;-77
2022/04/24 05:02:39;;;;;;;22.33;17.10;;;;;;;7.77;100.00;94399.31;5042712;28;20080;-77
2022/04/24 05:05:06;;;;;;;23.77;18.67;;;;;;;7.75;100.00;94401.34;5063024;28;20119;-77
2022/04/24 05:07:32;;;;;;;25.20;18.83;;;;;;;7.83;100.00;94403.00;5040181;28;20028;-77
2022/04/24 05:09:58;;;;;;;27.20;20.27;;;;;;;7.78;100.00;94408.81;5063251;28;20112;-78
2022/04/24 05:12:27;;;;;;;24.07;18.57;;;;;;;7.88;100.00;94405.06;5062156;28;20175;-77
2022/04/24 05:14:53;;;;;;;23.67;17.93;;;;;;;7.88;100.00;94407.66;5067929;28;20040;-78
2022/04/24 05:17:19;;;;;;;25.37;19.63;;;;;;;7.72;100.00;94417.41;5064279;28;20082;-77
2022/04/24 05:19:45;;;;;;;27.10;20.87;;;;;;;7.82;100.00;94417.09;5044218;28;20450;-77
2022/04/24 05:22:11;;;;;;;28.77;21.97;;;;;;;7.77;100.00;94422.06;5061773;28;20028;-77
2022/04/24 05:24:37;;;;;;;27.57;21.67;;;;;;;7.77;100.00;94424.69;5063672;28;20777;-77
2022/04/24 05:27:03;;;;;;;29.53;22.03;;;;;;;7.75;100.00;94435.34;5048183;28;20033;-78
2022/04/24 05:29:29;;;;;;;29.23;21.87;;;;;;;7.78;100.00;94434.97;5045297;28;20028;-77
2022/04/24 05:31:54;;;;;;;29.40;23.53;;;;;;;7.74;100.00;94440.75;5051170;28;20032;-77
2022/04/24 05:34:20;;;;;;;32.20;24.43;;;;;;;7.72;100.00;94454.03;5047158;28;20035;-77
2022/04/24 05:36:46;;;;;;;33.33;25.60;;;;;;;7.73;100.00;94454.84;5061468;28;20037;-78
2022/04/24 05:39:11;;;;;;;37.50;27.27;;;;;;;7.67;100.00;94471.28;5064185;28;20028;-77
2022/04/24 05:41:37;;;;;;;36.23;26.37;;;;;;;7.62;100.00;94492.75;5048609;28;20055;-77
2022/04/24 05:44:03;;;;;;;15.80;10.60;;;;;;;7.13;100.00;94490.72;5062437;28;20051;-77
2022/04/24 05:46:30;;;;;;;9.77;5.30;;;;;;;6.79;100.00;94493.88;5063236;28;20032;-77
2022/04/24 05:51:29;;;;;;;5.40;1.90;;;;;;;6.51;100.00;94511.94;5007854;28;20048;-79
2022/04/24 05:53:55;;;;;;;4.43;2.50;;;;;;;6.52;100.00;94518.78;4995675;28;20041;-77
2022/04/24 05:56:21;;;;;;;4.73;1.97;;;;;;;6.44;100.00;94516.22;5018894;28;20082;-79
2022/04/24 05:58:47;;;;;;;5.23;2.50;;;;;;;6.36;100.00;94517.09;5028615;28;20033;-79
2022/04/24 06:01:14;;;;;;;5.77;3.10;;;;;;;6.33;100.00;94528.69;5036430;28;20029;-78
2022/04/24 06:03:40;;;;;;;12.43;6.20;;;;;;;6.33;100.00;94520.88;5035784;22;20045;-78
2022/04/24 06:06:07;;;;;;;5.30;1.60;;;;;;;6.27;100.00;94520.75;5003173;28;20033;-79
2022/04/24 06:08:33;;;;;;;5.00;1.60;;;;;;;6.33;100.00;94520.06;5036537;28;20559;-81
2022/04/24 06:10:58;;;;;;;3.47;1.27;;;;;;;6.30;100.00;94521.22;5019706;28;20021;-81
2022/04/24 06:13:24;;;;;;;5.27;1.53;;;;;;;6.31;100.00;94509.81;5031812;28;20036;-80
2022/04/24 06:15:54;;;;;;;2.50;0.90;;;;;;;6.33;100.00;94512.22;5029028;28;20025;-81
2022/04/24 06:18:19;;;;;;;2.03;1.20;;;;;;;6.34;100.00;94521.72;5024828;28;20052;-81
2022/04/24 06:20:45;;;;;;;2.07;1.20;;;;;;;6.29;100.00;94518.78;5034184;28;20025;-80
2022/04/24 06:23:11;;;;;;;3.23;1.13;;;;;;;6.32;100.00;94524.47;5027399;28;20026;-78
2022/04/24 06:25:38;;;;;;;3.03;1.03;;;;;;;6.31;100.00;94528.09;5037164;28;20041;-79
2022/04/24 06:28:04;;;;;;;3.53;1.07;;;;;;;6.34;100.00;94527.75;5015279;28;20029;-79
2022/04/24 06:30:31;;;;;;;4.63;1.17;;;;;;;6.35;100.00;94531.16;5009614;28;20034;-78
2022/04/24 06:33:00;;;;;;;2.53;1.20;;;;;;;6.34;100.00;94535.56;5000830;28;20076;-78
2022/04/24 06:35:27;;;;;;;3.23;1.03;;;;;;;6.38;100.00;94544.66;5008883;28;20081;-78
2022/04/24 06:37:55;;;;;;;3.13;1.10;;;;;;;6.37;100.00;94537.84;5008440;28;20517;-79
2022/04/24 06:40:25;;;;;;;2.70;0.70;;;;;;;6.37;100.00;94543.06;5012703;28;20030;-79
2022/04/24 06:42:52;;;;;;;2.13;0.80;;;;;;;6.34;100.00;94546.00;5007727;28;20529;-79
2022/04/24 06:45:41;;;;;;;2.73;1.00;;;;;;;6.42;100.00;94546.94;5027911;28;20020;-80
2022/04/24 06:48:09;;;;;;;2.53;1.00;;;;;;;6.43;100.00;94549.34;5001414;28;20095;-79
2022/04/24 06:50:36;;;;;;;7.07;2.37;;;;;;;6.39;100.00;94540.25;5013283;28;20052;-79
2022/04/24 06:53:06;;;;;;;3.93;1.40;;;;;;;6.42;100.00;94552.16;5028906;28;20037;-79
2022/04/24 06:55:34;;;;;;;5.40;1.30;;;;;;;6.36;100.00;94549.25;5022491;28;20168;-79
2022/04/24 06:58:00;;;;;;;3.03;0.80;;;;;;;6.41;100.00;94553.97;5023821;28;20465;-79
2022/04/24 07:00:28;;;;;;;2.60;1.00;;;;;;;6.34;100.00;94553.84;5031049;28;20034;-79
2022/04/24 07:02:54;;;;;;;4.50;1.60;;;;;;;6.36;100.00;94559.69;5011632;28;20033;-80
2022/04/24 07:05:24;;;;;;;5.43;2.50;;;;;;;6.33;100.00;94554.81;5026443;28;20033;-80
2022/04/24 07:07:50;;;;;;;4.53;2.17;;;;;;;6.36;100.00;94561.50;5025728;28;20048;-79
2022/04/24 07:10:16;;;;;;;7.00;2.87;;;;;;;6.27;100.00;94565.13;5029444;28;20079;-78
2022/04/24 07:12:53;;;;;;;4.43;1.80;;;;;;;6.33;100.00;94546.97;5028807;28;20060;-79
2022/04/24 07:15:20;;;;;;;6.33;2.83;;;;;;;6.29;100.00;94558.75;5020091;28;20364;-78
2022/04/24 07:17:47;;;;;;;4.10;1.50;;;;;;;6.29;100.00;94560.56;5026468;28;20029;-77
2022/04/24 07:20:15;;;;;;;4.67;1.23;;;;;;;6.72;100.00;94558.28;5027211;28;20037;-76
2022/04/24 07:22:49;;;;;;;1.90;0.50;;;;;;;6.56;100.00;94552.19;5027037;28;20414;-78
2022/04/24 07:25:17;;;;;;;1.77;0.73;;;;;;;6.49;100.00;94566.13;5026813;28;20750;-80
2022/04/24 07:27:43;;;;;;;2.03;0.60;;;;;;;6.32;100.00;94566.25;5028829;28;20253;-79
2022/04/24 07:30:14;;;;;;;4.57;1.50;;;;;;;6.26;100.00;94568.75;5027372;28;20092;-78
2022/04/24 07:32:41;;;;;;;0.97;0.50;;;;;;;6.27;100.00;94568.59;5021496;28;20041;-78
2022/04/24 07:35:13;;;;;;;3.57;1.00;;;;;;;6.32;100.00;94566.25;5023860;28;20084;-78
2022/04/24 07:37:39;;;;;;;4.37;1.63;;;;;;;6.32;100.00;94574.06;5029926;28;20030;-78
2022/04/24 07:40:11;;;;;;;4.50;1.70;;;;;;;6.35;100.00;94576.34;5022796;28;20038;-78
2022/04/24 07:42:50;;;;;;;4.53;1.80;;;;;;;6.35;100.00;94575.53;5010955;28;20393;-79
2022/04/24 07:45:24;;;;;;;2.87;1.10;;;;;;;6.35;100.00;94572.94;5004027;28;20046;-78
2022/04/24 07:47:51;;;;;;;3.78;1.08;;;;;;;6.23;100.00;94567.28;5006604;28;20014;-78
2022/04/24 07:50:18;;;;;;;4.77;2.50;;;;;;;6.23;100.00;94566.47;5021472;28;20037;-78
2022/04/24 07:52:47;;;;;;;5.10;2.43;;;;;;;6.37;100.00;94560.50;5010076;28;20069;-79
2022/04/24 07:55:15;;;;;;;6.60;2.70;;;;;;;6.28;100.00;94557.16;5019588;28;20021;-78
2022/04/24 07:57:40;;;;;;;7.50;2.90;;;;;;;6.32;100.00;94549.78;5021017;28;20077;-78
2022/04/24 08:00:10;;;;;;;3.60;1.83;;;;;;;6.30;100.00;94555.16;5006318;28;20029;-79
2022/04/24 08:02:52;;;;;;;2.27;0.90;;;;;;;6.28;100.00;94554.53;5025451;28;20029;-79
2022/04/24 08:05:22;;;;;;;2.07;0.90;;;;;;;6.27;100.00;94547.69;5021532;28;20034;-79
2022/04/24 08:07:48;;;;;;;6.73;2.57;;;;;;;6.33;100.00;94560.03;5013046;28;20022;-79
2022/04/24 08:10:14;;;;;;;2.73;0.90;;;;;;;6.34;100.00;94566.09;5022404;28;20040;-79
2022/04/24 08:12:40;;;;;;;7.73;1.87;;;;;;;6.25;100.00;94557.50;5025724;28;20041;-79
2022/04/24 08:15:06;;;;;;;1.73;0.70;;;;;;;6.28;100.00;94562.38;5023492;28;20061;-78
2022/04/24 08:17:31;;;;;;;0.87;0.50;;;;;;;6.27;100.00;94560.75;5021054;28;20029;-78
2022/04/24 08:19:57;;;;;;;2.13;0.70;;;;;;;6.28;100.00;94558.94;5028419;28;20029;-79
2022/04/24 08:22:23;;;;;;;2.10;0.57;;;;;;;6.21;100.00;94561.44;5008090;28;20033;-79
2022/04/24 08:24:48;;;;;;;1.03;0.47;;;;;;;6.12;100.00;94560.66;5012754;28;20026;-80
2022/04/24 08:27:14;;;;;;;3.77;0.60;;;;;;;6.17;100.00;94562.78;5032850;28;20069;-79
2022/04/24 08:29:40;;;;;;;1.43;0.40;;;;;;;6.17;100.00;94565.38;5012971;28;20033;-80
2022/04/24 08:32:07;;;;;;;2.40;0.57;;;;;;;6.17;100.00;94561.94;5031736;28;20029;-79
2022/04/24 08:34:32;;;;;;;1.67;0.50;;;;;;;6.18;100.00;94563.59;5029471;28;20083;-80
2022/04/24 08:36:58;;;;;;;2.47;0.60;;;;;;;6.12;100.00;94567.69;5027646;28;20697;-80
2022/04/24 08:39:23;;;;;;;1.77;0.90;;;;;;;6.16;100.00;94573.38;5016103;28;20069;-80
2022/04/24 08:41:51;;;;;;;4.73;1.10;;;;;;;6.20;100.00;94572.84;5028602;28;20080;-79
2022/04/24 08:44:16;;;;;;;2.17;0.63;;;;;;;6.18;100.00;94577.44;5051817;28;20033;-79
2022/04/24 08:46:45;;;;;;;1.80;0.73;;;;;;;6.20;100.00;94588.50;5030393;28;20048;-79
2022/04/24 08:49:12;;;;;;;2.63;0.83;;;;;;;6.24;100.00;94583.78;5024876;28;20033;-80
2022/04/24 08:51:40;;;;;;;2.87;1.17;;;;;;;6.31;100.00;94584.72;5018945;28;20113;-79
2022/04/24 08:54:06;;;;;;;1.87;0.60;;;;;;;6.27;100.00;94579.03;5019400;28;20139;-79
2022/04/24 08:56:31;;;;;;;3.27;0.83;;;;;;;6.41;100.00;94581.88;5030860;28;20163;-80
2022/04/24 08:58:57;;;;;;;2.90;1.30;;;;;;;6.41;100.00;94574.03;5036581;28;20036;-79
2022/04/24 09:01:24;;;;;;;1.40;0.87;;;;;;;6.42;100.00;94570.44;5027679;28;20394;-79
2022/04/24 09:03:49;;;;;;;2.00;0.80;;;;;;;6.56;100.00;94570.47;5031978;28;20409;-79
2022/04/24 09:06:22;;;;;;;3.57;1.17;;;;;;;6.58;100.00;94575.53;5037532;28;20029;-80
2022/04/24 09:08:48;;;;;;;3.97;1.10;;;;;;;6.60;100.00;94570.94;5038216;28;20057;-80
2022/04/24 09:11:14;;;;;;;1.97;0.80;;;;;;;6.72;100.00;94572.16;5023193;28;20036;-80
2022/04/24 09:16:53;;;;;;;1.80;0.70;;;;;;;6.76;100.00;94573.41;5037919;28;20108;-80
2022/04/24 09:19:25;;;;;;;1.53;0.50;;;;;;;6.85;100.00;94576.78;5055867;28;20022;-80
2022/04/24 09:22:02;;;;;;;2.67;1.03;;;;;;;6.93;100.00;94573.28;5027457;28;20052;-80
2022/04/24 09:24:41;;;;;;;3.10;0.83;;;;;;;6.94;100.00;94574.88;5007428;28;20038;-79
2022/04/24 09:27:07;;;;;;;1.33;0.70;;;;;;;6.89;100.00;94591.09;5032968;28;20609;-80
2022/04/24 09:29:33;;;;;;;4.70;1.57;;;;;;;7.00;100.00;94587.25;5028853;28;20085;-79
2022/04/24 09:31:59;;;;;;;3.03;1.20;;;;;;;6.93;100.00;94594.19;5032964;28;20045;-80
2022/04/24 09:34:33;;;;;;;2.70;1.20;;;;;;;7.05;100.00;94598.81;5031611;28;20108;-80
2022/04/24 09:37:04;;;;;;;3.73;0.93;;;;;;;7.05;100.00;94596.19;5020398;28;20044;-79
2022/04/24 09:39:31;;;;;;;2.50;1.20;;;;;;;7.16;100.00;94596.75;5036884;28;20044;-79
2022/04/24 09:42:21;;;;;;;1.77;0.70;;;;;;;7.19;100.00;94604.25;5012265;28;20172;-80
2022/04/24 09:44:52;;;;;;;1.83;0.50;;;;;;;7.23;100.00;94606.31;5037507;28;20524;-81
2022/04/24 09:47:23;;;;;;;1.73;0.50;;;;;;;7.29;100.00;94610.81;5035705;28;20029;-81
2022/04/24 09:49:50;;;;;;;1.20;0.40;;;;;;;7.35;100.00;94608.50;5052646;28;20453;-81
2022/04/24 09:52:25;;;;;;;1.47;0.50;;;;;;;7.50;100.00;94617.97;5032862;28;20035;-79
2022/04/24 09:54:53;;;;;;;1.60;0.73;;;;;;;7.42;100.00;94618.06;5028942;28;20033;-81
2022/04/24 09:57:21;;;;;;;2.97;1.33;;;;;;;7.45;100.00;94614.28;5028295;28;20025;-81
2022/04/24 09:59:48;;;;;;;1.43;0.90;;;;;;;7.60;100.00;94622.94;5034746;28;20116;-78
2022/04/24 10:02:18;;;;;;;2.27;0.50;;;;;;;7.52;100.00;94625.66;5031115;28;20493;-78
2022/04/24 10:04:46;;;;;;;1.20;0.60;;;;;;;7.48;100.00;94617.34;5017099;28;20049;-78
2022/04/24 10:07:16;;;;;;;1.87;0.80;;;;;;;7.43;100.00;94616.25;5033767;28;20172;-78
2022/04/24 10:09:47;;;;;;;1.97;0.73;;;;;;;7.58;100.00;94624.94;5014990;28;20497;-81
2022/04/24 10:12:18;;;;;;;2.40;1.20;;;;;;;7.67;100.00;94620.41;5031330;28;20041;-81
2022/04/24 10:14:50;;;;;;;2.00;0.70;;;;;;;7.65;100.00;94615.38;5039998;28;20561;-81
2022/04/24 10:17:42;;;;;;;1.33;0.70;;;;;;;7.73;100.00;94617.88;5024544;28;20029;-81
2022/04/24 10:20:25;;;;;;;1.20;0.70;;;;;;;7.78;100.00;94623.41;5014627;28;20041;-81
2022/04/24 10:22:55;;;;;;;2.28;1.25;;;;;;;7.70;100.00;94625.28;5024716;28;20369;-81
2022/04/24 10:25:39;;;;;;;2.27;0.67;;;;;;;7.90;100.00;94630.78;5033467;28;20044;-81
2022/04/24 10:28:12;;;;;;;2.83;1.00;;;;;;;8.14;100.00;94633.06;5024586;28;20116;-80
2022/04/24 10:30:39;;;;;;;1.50;0.60;;;;;;;8.12;100.00;94632.47;5011882;28;20657;-81
2022/04/24 10:33:22;;;;;;;1.30;0.70;;;;;;;8.35;100.00;94631.50;5030656;28;20021;-81
2022/04/24 10:35:57;;;;;;;2.50;0.75;;;;;;;8.54;100.00;94633.56;5032369;28;20041;-81
2022/04/24 10:38:24;;;;;;;3.23;0.70;;;;;;;8.54;100.00;94624.88;5036914;28;20036;-80
2022/04/24 10:41:06;;;;;;;1.37;0.50;;;;;;;8.80;100.00;94619.91;5008752;28;20165;-80
2022/04/24 10:43:46;;;;;;;2.07;0.60;;;;;;;8.90;100.00;94616.97;5017532;28;20037;-81
2022/04/24 10:46:26;;;;;;;0.27;0.20;;;;;;;8.86;100.00;94613.91;5011247;28;20209;-80
2022/04/24 10:48:53;;;;;;;0.47;0.20;;;;;;;8.55;100.00;94609.00;5025470;28;20706;-81
2022/04/24 10:51:32;;;;;;;0.57;0.23;;;;;;;8.60;100.00;94608.44;5029802;28;20061;-80
2022/04/24 10:54:07;;;;;;;0.87;0.30;;;;;;;8.46;100.00;94603.06;5042014;28;20034;-82
2022/04/24 10:56:33;;;;;;;1.77;0.60;;;;;;;8.27;100.00;94614.09;5017356;28;20042;-81
2022/04/24 10:59:19;;;;;;;0.77;0.40;;;;;;;8.32;100.00;94608.31;5018998;28;20120;-80
2022/04/24 11:01:53;;;;;;;0.40;0.40;;;;;;;8.37;100.00;94616.41;5021187;28;20044;-80
2022/04/24 11:04:19;;;;;;;;;;;;;;;8.39;100.00;94610.03;5021923;28;20060;-80
2022/04/24 11:07:00;;;;;;;2.60;0.87;;;;;;;8.63;100.00;94619.34;5030723;28;20018;-80
2022/04/24 11:09:36;;;;;;;4.20;1.43;;;;;;;8.46;100.00;94624.00;5011123;28;20030;-81
2022/04/24 11:12:07;;;;;;;0.30;0.20;;;;;;;8.61;100.00;94617.91;5027722;28;20037;-80
2022/04/24 11:14:35;;;;;;;1.23;0.30;;;;;;;8.71;100.00;94619.22;5023172;28;20213;-80
2022/04/24 11:17:03;;;;;;;1.50;0.70;;;;;;;8.98;100.00;94628.13;5020083;28;20501;-80
2022/04/24 11:19:34;;;;;;;1.43;0.53;;;;;;;8.94;100.00;94626.88;5025279;28;20038;-80
2022/04/24 11:22:02;;;;;;;1.43;0.50;;;;;;;8.95;100.00;94628.53;5030671;28;20029;-81
2022/04/24 11:24:33;;;;;;;1.40;0.50;;;;;;;9.13;100.00;94629.88;5024983;28;20022;-80
2022/04/24 11:27:04;;;;;;;0.80;0.50;;;;;;;8.71;100.00;94621.03;5024949;28;20659;-81
2022/04/24 11:29:31;;;;;;;0.80;0.30;;;;;;;8.78;100.00;94623.72;5032773;28;20364;-81
2022/04/24 11:31:57;;;;;;;0.30;0.20;;;;;;;8.61;100.00;94636.25;5019060;28;20033;-82
2022/04/24 11:34:24;;;;;;;0.30;0.20;;;;;;;8.50;100.00;94640.97;5035117;28;20101;-79